Time;durP1;ratioP1;P1;durP2;ratioP2;P2;SDS_P1;SDS_P2;PMS_P1;PMS_P2;Temp;Humidity;BMP_temperature;BMP_pressure;BME280_temperature;BME280_humidity;BME280_pressure;Samples;Min_cycle;Max_cycle;Signal;HPM_P1;HPM_P2
2023/09/11 00:00:35;;;;;;;39.78;35.63;;;19.10;99.90;;;;;;6156108;23;20016;-77
2023/09/11 00:03:01;;;;;;;37.25;33.25;;;18.90;99.90;;;;;;6182549;23;20068;-77
2023/09/11 00:05:27;;;;;;;37.90;34.72;;;19.00;99.90;;;;;;6133188;23;20013;-77
2023/09/11 00:07:52;;;;;;;42.45;38.05;;;19.00;99.90;;;;;;6182077;23;20023;-77
2023/09/11 00:10:18;;;;;;;39.15;35.42;;;18.90;99.90;;;;;;6131396;23;20056;-77
2023/09/11 00:12:43;;;;;;;45.17;40.40;;;18.90;99.90;;;;;;6157123;23;20024;-77
2023/09/11 00:15:09;;;;;;;44.08;39.55;;;18.90;99.90;;;;;;6157452;23;20084;-77
2023/09/11 00:17:34;;;;;;;45.28;40.35;;;18.90;99.90;;;;;;6157613;23;20009;-77
2023/09/11 00:20:00;;;;;;;39.85;35.85;;;18.90;99.90;;;;;;6181937;23;20015;-77
2023/09/11 00:22:25;;;;;;;42.50;38.45;;;18.90;99.90;;;;;;6156528;23;20017;-77
2023/09/11 00:24:51;;;;;;;37.30;33.70;;;18.90;99.90;;;;;;6157465;23;20072;-77
2023/09/11 00:27:17;;;;;;;41.30;37.15;;;18.90;99.90;;;;;;6157691;23;20017;-77
2023/09/11 00:29:42;;;;;;;42.08;37.85;;;18.90;99.90;;;;;;6156667;23;20013;-77
2023/09/11 00:32:08;;;;;;;42.38;38.08;;;18.90;99.90;;;;;;6182306;23;20114;-77
2023/09/11 00:34:33;;;;;;;42.58;38.30;;;18.80;99.90;;;;;;6132573;23;20013;-77
2023/09/11 00:36:59;;;;;;;42.70;38.60;;;18.80;99.90;;;;;;6182182;23;20013;-77
2023/09/11 00:39:26;;;;;;;47.97;43.17;;;18.80;99.90;;;;;;6156989;23;20013;-77
2023/09/11 00:41:51;;;;;;;46.13;41.42;;;18.80;99.90;;;;;;6156537;23;20145;-77
2023/09/11 00:44:17;;;;;;;44.42;40.15;;;18.80;99.90;;;;;;6157389;23;20114;-77
2023/09/11 00:46:43;;;;;;;42.70;38.33;;;18.70;99.90;;;;;;6156880;23;20040;-77
2023/09/11 00:49:09;;;;;;;41.00;37.03;;;18.70;99.90;;;;;;6132793;23;20017;-77
2023/09/11 00:51:36;;;;;;;44.05;39.70;;;18.70;99.90;;;;;;6155801;23;20020;-77
2023/09/11 00:54:02;;;;;;;45.08;41.00;;;18.70;99.90;;;;;;6157500;23;20016;-77
2023/09/11 00:56:28;;;;;;;43.72;39.20;;;18.70;99.90;;;;;;6157166;23;20465;-77
2023/09/11 00:58:53;;;;;;;42.63;38.53;;;18.70;99.90;;;;;;6156722;23;20009;-77
2023/09/11 01:01:21;;;;;;;43.83;39.33;;;18.60;99.90;;;;;;6156211;23;20010;-77
2023/09/11 01:03:47;;;;;;;42.25;37.85;;;18.60;99.90;;;;;;6157367;23;20408;-77
2023/09/11 01:06:13;;;;;;;44.33;39.78;;;18.60;99.90;;;;;;6157241;23;20013;-77
2023/09/11 01:08:39;;;;;;;42.50;38.25;;;18.60;99.90;;;;;;6132064;23;20013;-77
2023/09/11 01:11:04;;;;;;;44.22;39.75;;;18.50;99.90;;;;;;6155530;23;20457;-77
2023/09/11 01:13:31;;;;;;;49.13;44.15;;;18.50;99.90;;;;;;6157725;23;20605;-77
2023/09/11 01:16:00;;;;;;;43.38;39.10;;;18.50;99.90;;;;;;6159215;23;20035;-77
2023/09/11 01:18:44;;;;;;;48.60;43.95;;;18.50;99.90;;;;;;6159361;23;20019;-77
2023/09/11 01:21:41;;;;;;;44.30;40.00;;;18.50;99.90;;;;;;6158330;23;20512;-77
2023/09/11 01:24:29;;;;;;;41.88;37.70;;;18.40;99.90;;;;;;6158357;23;20067;-77
2023/09/11 01:27:33;;;;;;;58.00;49.35;;;18.40;99.90;;;;;;6159177;23;20512;-77
2023/09/11 01:30:00;;;;;;;43.80;39.65;;;18.50;99.90;;;;;;6133690;23;20372;-77
2023/09/11 01:32:26;;;;;;;45.65;41.25;;;18.40;99.90;;;;;;6159142;23;20091;-78
2023/09/11 01:34:52;;;;;;;47.67;41.92;;;18.40;99.90;;;;;;6158632;23;20056;-77
2023/09/11 01:37:17;;;;;;;53.80;48.28;;;18.40;99.90;;;;;;6159323;23;20389;-77
2023/09/11 01:39:43;;;;;;;52.33;46.78;;;18.30;99.90;;;;;;6133134;23;20151;-77
2023/09/11 01:42:16;;;;;;;48.13;43.55;;;18.30;99.90;;;;;;6184017;23;20020;-77
2023/09/11 01:44:46;;;;;;;;;;;18.30;99.90;;;;;;6157975;23;20021;-77
2023/09/11 01:47:14;;;;;;;50.50;45.60;;;18.30;99.90;;;;;;6134471;23;20030;-77
2023/09/11 01:49:41;;;;;;;47.83;42.72;;;18.30;99.90;;;;;;6133155;23;20013;-77
2023/09/11 01:52:09;;;;;;;71.13;59.45;;;18.30;99.90;;;;;;6133164;23;20473;-77
2023/09/11 01:54:35;;;;;;;48.75;44.22;;;18.30;99.90;;;;;;6158883;23;20009;-77
2023/09/11 01:57:01;;;;;;;49.30;44.78;;;18.30;99.90;;;;;;6158946;23;20540;-77
2023/09/11 01:59:27;;;;;;;55.72;49.83;;;18.20;99.90;;;;;;6133712;23;20053;-77
2023/09/11 02:01:52;;;;;;;45.92;41.67;;;18.20;99.90;;;;;;6158329;23;20013;-77
2023/09/11 02:04:18;;;;;;;54.55;49.40;;;18.20;99.90;;;;;;6158944;23;20016;-77
2023/09/11 02:06:43;;;;;;;48.47;43.25;;;18.20;99.90;;;;;;6158653;23;20013;-77
2023/09/11 02:09:09;;;;;;;51.97;46.60;;;18.20;99.90;;;;;;6157983;23;20327;-77
2023/09/11 02:11:34;;;;;;;52.40;47.17;;;18.20;99.90;;;;;;6183008;23;20087;-77
2023/09/11 02:14:00;;;;;;;52.25;46.83;;;18.10;99.90;;;;;;6158072;23;20014;-77
2023/09/11 02:16:26;;;;;;;46.78;42.35;;;18.10;99.90;;;;;;6183341;23;20005;-77
2023/09/11 02:18:51;;;;;;;49.08;44.05;;;18.10;99.90;;;;;;6158874;23;20009;-77
2023/09/11 02:21:17;;;;;;;50.55;45.20;;;18.10;99.90;;;;;;6133045;23;20096;-77
2023/09/11 02:23:42;;;;;;;47.40;42.55;;;18.10;99.90;;;;;;6134244;23;20012;-77
2023/09/11 02:26:08;;;;;;;56.10;50.45;;;18.10;99.90;;;;;;6157426;23;20009;-77
2023/09/11 02:28:33;;;;;;;48.80;43.97;;;18.10;99.90;;;;;;6158617;23;20095;-77
2023/09/11 02:30:59;;;;;;;55.38;49.95;;;18.10;99.90;;;;;;6157463;23;20013;-77
2023/09/11 02:33:25;;;;;;;49.25;44.53;;;18.10;99.90;;;;;;6158629;23;20374;-77
2023/09/11 02:35:54;;;;;;;48.92;44.30;;;18.10;99.90;;;;;;6133453;23;20036;-77
2023/09/11 02:38:20;;;;;;;70.78;59.58;;;18.00;99.90;;;;;;6157616;23;20508;-77
2023/09/11 02:40:46;;;;;;;51.63;46.70;;;18.00;99.90;;;;;;6157635;23;20016;-77
2023/09/11 02:43:11;;;;;;;51.45;46.78;;;18.00;99.90;;;;;;6158509;23;20013;-77
2023/09/11 02:45:37;;;;;;;50.35;45.63;;;18.00;99.90;;;;;;6158371;23;20017;-77
2023/09/11 02:48:03;;;;;;;51.55;46.13;;;18.00;99.90;;;;;;6183465;23;20103;-77
2023/09/11 02:50:28;;;;;;;51.40;46.40;;;18.00;99.90;;;;;;6132348;23;20013;-77
2023/09/11 02:52:54;;;;;;;56.08;50.53;;;18.00;99.90;;;;;;6157842;23;20389;-77
2023/09/11 02:55:19;;;;;;;66.32;59.17;;;18.00;99.90;;;;;;6183111;23;20009;-77
2023/09/11 02:57:45;;;;;;;59.38;53.45;;;18.00;99.90;;;;;;6134008;23;20013;-77
2023/09/11 03:00:11;;;;;;;50.03;45.13;;;18.00;99.90;;;;;;6157505;23;20331;-77
2023/09/11 03:02:36;;;;;;;48.30;43.45;;;18.00;99.90;;;;;;6156405;23;20013;-77
2023/09/11 03:05:02;;;;;;;58.30;52.70;;;18.00;99.90;;;;;;6132143;23;20453;-77
2023/09/11 03:07:28;;;;;;;49.20;44.60;;;18.00;99.90;;;;;;6132226;23;20396;-77
2023/09/11 03:09:53;;;;;;;56.22;50.83;;;18.00;99.90;;;;;;6179986;23;20075;-77
2023/09/11 03:12:19;;;;;;;47.67;43.10;;;18.00;99.90;;;;;;6155910;23;20060;-77
2023/09/11 03:14:44;;;;;;;46.88;42.40;;;18.00;99.90;;;;;;6156591;23;20012;-77
2023/09/11 03:17:12;;;;;;;52.55;47.45;;;18.00;99.90;;;;;;6156940;23;20049;-77
2023/09/11 03:19:37;;;;;;;56.15;50.78;;;17.90;99.90;;;;;;6156443;23;20042;-77
2023/09/11 03:22:03;;;;;;;49.78;45.25;;;17.90;99.90;;;;;;6156445;23;20024;-77
2023/09/11 03:24:29;;;;;;;50.55;45.97;;;17.90;99.90;;;;;;6156582;23;20016;-77
2023/09/11 03:26:54;;;;;;;53.95;48.55;;;17.90;99.90;;;;;;6156541;23;20017;-77
2023/09/11 03:29:20;;;;;;;55.53;50.25;;;17.90;99.90;;;;;;6181007;23;20477;-77
2023/09/11 03:31:46;;;;;;;63.47;57.03;;;17.90;99.90;;;;;;6155471;23;20055;-77
2023/09/11 03:34:12;;;;;;;54.25;49.08;;;17.90;99.90;;;;;;6156670;23;20436;-77
2023/09/11 03:36:37;;;;;;;57.50;51.60;;;17.90;99.90;;;;;;6131558;23;20068;-77
2023/09/11 03:39:03;;;;;;;60.67;54.22;;;17.90;99.90;;;;;;6156846;23;20067;-77
2023/09/11 03:41:29;;;;;;;55.42;49.95;;;17.90;99.90;;;;;;6130134;23;20019;-77
2023/09/11 03:43:55;;;;;;;61.85;55.90;;;17.90;99.90;;;;;;6157045;23;20005;-77
2023/09/11 03:46:20;;;;;;;53.83;48.72;;;17.80;99.90;;;;;;6156525;23;20011;-77
2023/09/11 03:48:47;;;;;;;51.28;46.67;;;17.80;99.90;;;;;;6181439;23;20092;-77
2023/09/11 03:51:13;;;;;;;53.90;48.90;;;17.80;99.90;;;;;;6155632;23;20319;-77
2023/09/11 03:53:42;;;;;;;51.65;46.78;;;17.80;99.90;;;;;;6180835;23;20069;-77
2023/09/11 03:56:09;;;;;;;53.97;48.88;;;17.80;99.90;;;;;;6156903;23;20108;-77
2023/09/11 03:58:34;;;;;;;52.83;48.03;;;17.80;99.90;;;;;;6156431;23;20016;-77
2023/09/11 04:01:00;;;;;;;54.43;49.40;;;17.80;99.90;;;;;;6112351;23;1054756;-77
2023/09/11 04:03:26;;;;;;;58.72;52.55;;;17.80;99.90;;;;;;6156800;23;20283;-77
2023/09/11 04:05:51;;;;;;;52.70;47.47;;;17.80;99.90;;;;;;6132691;23;20013;-77
2023/09/11 04:08:17;;;;;;;54.95;48.97;;;17.80;99.90;;;;;;6157772;23;20095;-77
2023/09/11 04:10:43;;;;;;;50.05;45.33;;;17.80;99.90;;;;;;6156762;23;20013;-77
2023/09/11 04:13:08;;;;;;;54.63;48.97;;;17.80;99.90;;;;;;6157105;23;20009;-77
2023/09/11 04:15:35;;;;;;;54.17;48.83;;;17.80;99.90;;;;;;6132183;23;20498;-77
2023/09/11 04:18:01;;;;;;;64.22;57.83;;;17.80;99.90;;;;;;6158199;23;20009;-77
2023/09/11 04:20:32;;;;;;;55.85;50.33;;;17.80;99.90;;;;;;6157144;23;20079;-77
2023/09/11 04:23:01;;;;;;;59.53;53.78;;;17.70;99.90;;;;;;6157633;23;20020;-77
2023/09/11 04:25:27;;;;;;;51.78;46.88;;;17.70;99.90;;;;;;6156299;23;20092;-77
2023/09/11 04:27:53;;;;;;;59.53;53.83;;;17.70;99.90;;;;;;6157061;23;20348;-77
2023/09/11 04:30:18;;;;;;;57.55;52.17;;;17.70;99.90;;;;;;6156806;23;20028;-77
2023/09/11 04:32:44;;;;;;;57.58;52.28;;;17.70;99.90;;;;;;6181332;23;20457;-77
2023/09/11 04:35:10;;;;;;;53.42;48.13;;;17.70;99.90;;;;;;6156828;23;20084;-77
2023/09/11 04:37:36;;;;;;;58.20;52.28;;;17.60;99.90;;;;;;6181606;23;20085;-77
2023/09/11 04:40:05;;;;;;;54.53;49.47;;;17.60;99.90;;;;;;6157348;23;20021;-77
2023/09/11 04:42:31;;;;;;;51.03;46.20;;;17.60;99.90;;;;;;6157498;23;20479;-77
2023/09/11 04:44:59;;;;;;;54.95;49.83;;;17.60;99.90;;;;;;6131121;23;20045;-77
2023/09/11 04:47:32;;;;;;;52.95;47.72;;;17.60;99.90;;;;;;6157333;23;20012;-77
2023/09/11 04:49:58;;;;;;;55.97;50.35;;;17.60;99.90;;;;;;6156826;23;20013;-77
2023/09/11 04:52:24;;;;;;;54.17;48.60;;;17.60;99.90;;;;;;6133250;23;20456;-77
2023/09/11 04:54:50;;;;;;;57.60;52.00;;;17.50;99.90;;;;;;6156147;23;20019;-77
2023/09/11 04:57:16;;;;;;;53.55;48.30;;;17.60;99.90;;;;;;6156378;23;20087;-77
2023/09/11 05:13:54;;;;;;;;;;;;;;;;;;;;;
2023/09/11 05:18:13;;;;;;;;;;;;;;;;;;;;;
2023/09/11 05:26:10;;;;;;;;;;;;;;;;;;;;;
2023/09/11 05:29:35;;;;;;;;;;;;;;;;;;;;;
2023/09/11 05:33:00;;;;;;;53.00;47.70;;;17.70;99.90;;;;;;5958182;23;20069;-79
2023/09/11 05:35:49;;;;;;;50.58;45.80;;;17.70;99.90;;;;;;5966085;23;20030;-80
2023/09/11 05:42:25;;;;;;;55.30;50.55;;;17.80;99.90;;;;;;5948722;24;20331;-79
2023/09/11 05:45:19;;;;;;;62.00;55.72;;;17.90;99.90;;;;;;5926885;24;20049;-81
2023/09/11 05:59:42;;;;;;;49.80;44.72;;;18.10;99.90;;;;;;5931667;24;20019;-77
2023/09/11 06:29:01;;;;;;;49.28;44.63;;;18.90;99.90;;;;;;5899265;24;20416;-80
2023/09/11 06:35:58;;;;;;;43.08;38.88;;;19.00;99.90;;;;;;6055864;23;20025;-80
2023/09/11 06:39:04;;;;;;;51.13;46.67;;;19.20;99.90;;;;;;6092880;23;20477;-80
2023/09/11 06:41:54;;;;;;;48.20;43.45;;;19.30;99.90;;;;;;6029287;23;20052;-77
2023/09/11 06:44:21;;;;;;;46.58;41.90;;;19.40;99.90;;;;;;6103504;23;20068;-79
2023/09/11 06:46:48;;;;;;;47.03;42.63;;;19.50;99.90;;;;;;6102812;23;20016;-78
2023/09/11 06:49:15;;;;;;;50.28;45.22;;;19.70;99.90;;;;;;6101766;23;20483;-79
2023/09/11 06:51:50;;;;;;;44.85;40.38;;;19.70;99.90;;;;;;6103136;23;20018;-80
2023/09/11 06:54:16;;;;;;;43.35;39.22;;;19.80;99.90;;;;;;6102374;23;20072;-78
2023/09/11 06:57:16;;;;;;;49.08;44.60;;;19.90;99.90;;;;;;6111415;23;20322;-80
2023/09/11 07:16:05;;;;;;;;;;;;;;;;;;;;;
2023/09/11 07:46:54;;;;;;;41.80;37.95;;;21.10;99.90;;;;;;6095689;23;20014;-83
2023/09/11 07:53:54;;;;;;;42.17;38.30;;;21.40;99.90;;;;;;6086816;23;20021;-82
2023/09/11 07:56:38;;;;;;;38.50;34.90;;;21.40;99.90;;;;;;6117653;23;20021;-80
2023/09/11 07:59:07;;;;;;;39.35;35.95;;;21.50;99.90;;;;;;6153419;23;20065;-80
2023/09/11 08:01:39;;;;;;;39.28;35.40;;;21.60;99.90;;;;;;6151456;23;20013;-80
2023/09/11 08:04:16;;;;;;;39.78;36.05;;;21.70;99.90;;;;;;6129164;23;20327;-80
2023/09/11 08:06:55;;;;;;;;;;;;;;;;;;;;;
2023/09/11 08:09:35;;;;;;;31.92;28.90;;;21.90;99.90;;;;;;6128290;23;20053;-80
2023/09/11 08:12:16;;;;;;;32.45;29.55;;;22.00;99.90;;;;;;6154393;23;20315;-80
2023/09/11 08:14:45;;;;;;;30.88;28.10;;;22.10;99.90;;;;;;6150710;23;20441;-81
2023/09/11 08:17:15;;;;;;;31.25;28.13;;;22.20;99.90;;;;;;6129876;23;20017;-81
2023/09/11 08:19:44;;;;;;;32.58;29.33;;;22.20;99.90;;;;;;6128432;23;20041;-80
2023/09/11 08:22:50;;;;;;;29.80;26.88;;;22.40;99.90;;;;;;6153931;23;20017;-80
2023/09/11 08:25:59;;;;;;;28.55;25.50;;;22.50;99.90;;;;;;6120089;23;20017;-80
2023/09/11 08:28:28;;;;;;;26.17;23.45;;;22.60;99.90;;;;;;6105016;23;20040;-80
2023/09/11 08:31:03;;;;;;;24.90;22.35;;;22.70;99.90;;;;;;6108805;23;20450;-80
2023/09/11 08:33:32;;;;;;;23.48;21.23;;;22.70;99.90;;;;;;6105277;23;20060;-80
2023/09/11 08:36:08;;;;;;;24.20;21.73;;;22.90;99.90;;;;;;6129784;23;20096;-80
2023/09/11 08:39:00;;;;;;;23.10;20.83;;;23.00;99.90;;;;;;6130174;23;20100;-80
2023/09/11 08:42:35;;;;;;;23.67;21.25;;;23.30;99.90;;;;;;6142922;23;20026;-81
2023/09/11 08:46:02;;;;;;;21.85;19.85;;;23.90;99.90;;;;;;6148658;23;20096;-80
2023/09/11 08:49:34;;;;;;;20.25;18.17;;;24.40;99.90;;;;;;6128662;23;20017;-81
2023/09/11 08:52:31;;;;;;;20.15;18.05;;;24.80;99.90;;;;;;6149117;23;20055;-80
2023/09/11 08:55:45;;;;;;;20.02;17.63;;;25.30;99.90;;;;;;6117159;23;20027;-81
2023/09/11 08:58:55;;;;;;;20.67;18.20;;;25.70;99.90;;;;;;6134099;23;20056;-81
2023/09/11 09:02:19;;;;;;;20.75;18.70;;;25.80;99.90;;;;;;6107479;23;20534;-80
2023/09/11 09:05:06;;;;;;;20.73;18.63;;;25.90;99.90;;;;;;6104660;23;20069;-81
2023/09/11 09:07:55;;;;;;;20.23;17.90;;;26.10;99.90;;;;;;6111370;23;20022;-80
2023/09/11 09:10:36;;;;;;;19.63;17.70;;;26.30;99.90;;;;;;6093145;23;20014;-80
2023/09/11 09:13:38;;;;;;;20.40;18.48;;;26.50;99.90;;;;;;6080156;23;20022;-80
2023/09/11 09:17:27;;;;;;;23.08;18.70;;;26.70;99.90;;;;;;6156149;23;20033;-80
2023/09/11 09:20:58;;;;;;;20.45;18.33;;;27.20;99.90;;;;;;6163406;23;20469;-81
2023/09/11 09:24:41;;;;;;;19.33;17.33;;;27.50;99.90;;;;;;6145603;23;20536;-80
2023/09/11 09:28:22;;;;;;;18.15;16.25;;;27.60;99.90;;;;;;6143083;23;20014;-82
2023/09/11 09:31:05;;;;;;;18.85;16.85;;;27.90;99.90;;;;;;6136611;23;20021;-81
2023/09/11 09:33:45;;;;;;;17.80;15.73;;;28.00;99.90;;;;;;6091019;23;20021;-81
2023/09/11 09:37:14;;;;;;;20.00;17.88;;;27.90;99.90;;;;;;6115952;23;20021;-80
2023/09/11 09:39:59;;;;;;;19.25;16.77;;;27.80;99.90;;;;;;6136209;23;20476;-80
2023/09/11 09:42:48;;;;;;;17.80;15.88;;;27.80;99.90;;;;;;6113299;23;20009;-81
2023/09/11 09:45:49;;;;;;;21.50;17.55;;;27.80;99.90;;;;;;6134449;23;20021;-81
2023/09/11 09:49:06;;;;;;;17.92;16.23;;;28.00;99.90;;;;;;6092929;23;20092;-81
2023/09/11 09:51:53;;;;;;;18.50;15.23;;;28.40;99.90;;;;;;6137802;23;20017;-80
2023/09/11 09:55:01;;;;;;;;;;;;;;;;;;;;;
2023/09/11 09:58:18;;;;;;;17.58;15.88;;;28.70;99.90;;;;;;6072108;23;20018;-81
2023/09/11 10:01:53;;;;;;;19.20;16.58;;;28.70;99.90;;;;;;6088756;23;20024;-81
2023/09/11 10:04:42;;;;;;;16.38;14.63;;;28.60;99.90;;;;;;6138592;23;20454;-81
2023/09/11 10:07:55;;;;;;;20.25;16.92;;;28.50;99.90;;;;;;6107997;23;20021;-81
2023/09/11 10:11:12;;;;;;;19.83;17.67;;;28.60;99.90;;;;;;6124799;23;20021;-81
2023/09/11 10:18:29;;;;;;;22.40;20.05;;;28.40;99.90;;;;;;6160720;23;20079;-81
2023/09/11 10:22:26;;;;;;;21.85;19.70;;;28.50;99.90;;;;;;6159890;23;20019;-81
2023/09/11 10:26:19;;;;;;;23.30;20.70;;;28.60;99.90;;;;;;5926065;24;20492;-81
2023/09/11 10:29:11;;;;;;;23.15;20.90;;;28.50;99.90;;;;;;5962702;24;20366;-81
2023/09/11 10:33:05;;;;;;;;;;;;;;;;;;;;;
2023/09/11 10:40:22;;;;;;;;;;;;;;;;;;;;;
2023/09/11 10:44:22;;;;;;;18.10;14.65;;;29.10;99.90;;;;;;6104368;23;20048;-81
2023/09/11 10:51:56;;;;;;;14.85;13.55;;;29.10;99.90;;;;;;6060184;23;20046;-81
2023/09/11 10:55:49;;;;;;;16.25;14.65;;;29.20;99.90;;;;;;6147091;23;20028;-81
2023/09/11 10:59:00;;;;;;;14.35;12.35;;;29.40;99.90;;;;;;6120184;23;20025;-81
2023/09/11 11:02:17;;;;;;;16.15;12.48;;;29.60;99.90;;;;;;6130749;23;20017;-80
2023/09/11 11:13:27;;;;;;;17.70;15.88;;;29.80;99.90;;;;;;5965363;24;20115;-81
2023/09/11 11:17:11;;;;;;;15.77;14.20;;;29.90;99.90;;;;;;6052266;23;20018;-81
2023/09/11 11:20:54;;;;;;;;;;;;;;;;;;;;;
2023/09/11 11:28:46;;;;;;;15.82;14.18;;;30.80;99.90;;;;;;5997140;23;20024;-82
2023/09/11 11:32:34;;;;;;;15.45;14.07;;;30.80;99.90;;;;;;6008122;23;20206;-82
2023/09/11 11:36:10;;;;;;;16.58;14.85;;;31.00;99.90;;;;;;5968433;23;20484;-82
2023/09/11 11:47:36;;;;;;;20.88;14.02;;;30.90;99.90;;;;;;5889538;24;20027;-82
2023/09/11 11:55:37;;;;;;;;;;;;;;;;;;;;;
2023/09/11 11:59:18;;;;;;;12.30;11.10;;;31.10;99.90;;;;;;6020875;23;20115;-82
2023/09/11 12:01:47;;;;;;;15.52;14.02;;;31.00;99.90;;;;;;6036942;23;20027;-81
2023/09/11 12:04:13;;;;;;;16.35;12.77;;;31.00;99.90;;;;;;6017213;23;20019;-80
2023/09/11 12:06:58;;;;;;;13.50;11.52;;;30.80;99.90;;;;;;6015534;23;20023;-80
2023/09/11 12:09:45;;;;;;;14.38;11.85;;;30.80;99.90;;;;;;6098172;23;20010;-80
2023/09/11 12:12:12;;;;;;;12.48;10.52;;;30.80;99.90;;;;;;6136193;23;20493;-80
2023/09/11 12:15:06;;;;;;;13.70;9.18;;;30.90;99.90;;;;;;6107804;23;20489;-80
2023/09/11 12:17:35;;;;;;;8.27;7.47;;;31.10;99.90;;;;;;6156930;23;20020;-79
2023/09/11 12:20:21;;;;;;;9.35;6.60;;;31.10;99.90;;;;;;6155961;23;20040;-79
2023/09/11 12:22:53;;;;;;;10.55;5.85;;;31.40;99.90;;;;;;6154786;23;20017;-78
2023/09/11 12:25:19;;;;;;;7.18;4.82;;;31.60;99.90;;;;;;6153391;23;20021;-78
2023/09/11 12:27:54;;;;;;;7.80;5.07;;;31.80;99.90;;;;;;6130992;23;20446;-80
2023/09/11 12:30:24;;;;;;;7.90;4.90;;;32.00;99.90;;;;;;6159911;23;20009;-80
2023/09/11 12:32:56;;;;;;;6.85;4.70;;;32.10;98.30;;;;;;6135383;23;20021;-81
2023/09/11 12:35:41;;;;;;;6.30;4.15;;;32.10;96.20;;;;;;6154637;23;20013;-81
2023/09/11 12:38:11;;;;;;;9.82;4.10;;;32.00;96.40;;;;;;6157242;23;20013;-80
2023/09/11 12:40:48;;;;;;;7.88;3.95;;;32.00;94.90;;;;;;6133366;23;20048;-80
2023/09/11 12:43:26;;;;;;;7.40;3.97;;;32.00;87.20;;;;;;6134015;23;20017;-80
2023/09/11 12:45:55;;;;;;;6.40;4.60;;;32.10;91.40;;;;;;6156906;23;20017;-80
2023/09/11 12:48:28;;;;;;;8.23;4.25;;;32.10;84.30;;;;;;6131979;23;20028;-80
2023/09/11 12:51:06;;;;;;;7.88;4.70;;;32.10;91.70;;;;;;6157689;23;20071;-80
2023/09/11 12:53:44;;;;;;;7.78;5.00;;;31.90;77.60;;;;;;6134163;23;20440;-80
2023/09/11 12:56:35;;;;;;;6.00;4.97;;;31.70;81.60;;;;;;6130958;23;20406;-80
2023/09/11 12:59:04;;;;;;;7.97;4.60;;;31.50;89.40;;;;;;6154586;23;20472;-80
2023/09/11 13:01:31;;;;;;;7.93;4.75;;;31.30;82.90;;;;;;6156457;23;20462;-80
2023/09/11 13:04:00;;;;;;;8.35;4.20;;;31.20;92.90;;;;;;6155698;23;20509;-80
2023/09/11 13:06:31;;;;;;;5.97;4.45;;;31.30;95.00;;;;;;6156597;23;20024;-80
2023/09/11 13:09:03;;;;;;;6.10;4.20;;;31.20;94.40;;;;;;6130101;23;20014;-81
2023/09/11 13:11:33;;;;;;;5.32;4.20;;;31.10;92.60;;;;;;6131839;23;20261;-80
2023/09/11 13:14:03;;;;;;;4.68;3.70;;;31.00;87.20;;;;;;6157273;23;20017;-80
2023/09/11 13:16:31;;;;;;;5.97;3.90;;;31.00;87.30;;;;;;6109188;23;20009;-80
2023/09/11 13:19:21;;;;;;;8.70;4.47;;;31.10;84.60;;;;;;6133452;23;20065;-80
2023/09/11 13:21:48;;;;;;;5.68;3.97;;;31.00;79.60;;;;;;6108290;23;20093;-80
2023/09/11 13:24:17;;;;;;;4.78;4.10;;;31.00;91.80;;;;;;6158310;23;20021;-80
2023/09/11 13:26:43;;;;;;;6.28;4.40;;;30.90;85.40;;;;;;6158744;23;20118;-80
2023/09/11 13:29:24;;;;;;;6.95;4.57;;;30.90;77.70;;;;;;6156534;23;20013;-80
2023/09/11 13:31:57;;;;;;;6.85;4.28;;;30.90;78.40;;;;;;6154338;23;20036;-80
2023/09/11 13:34:31;;;;;;;7.75;4.68;;;30.70;74.50;;;;;;6134767;23;20014;-80
2023/09/11 13:36:59;;;;;;;9.10;4.85;;;30.60;80.70;;;;;;6157103;23;20021;-81
2023/09/11 13:39:42;;;;;;;8.18;4.90;;;30.50;86.80;;;;;;6158689;23;20147;-80
2023/09/11 13:42:11;;;;;;;7.43;4.72;;;30.40;97.00;;;;;;6133621;23;20022;-81
2023/09/11 13:44:38;;;;;;;7.90;4.70;;;30.40;99.90;;;;;;6159355;23;20018;-80
2023/09/11 13:47:14;;;;;;;6.70;4.82;;;30.40;99.80;;;;;;6134521;23;20018;-81
2023/09/11 13:49:40;;;;;;;6.20;4.78;;;30.30;93.70;;;;;;6136288;23;20071;-80
2023/09/11 13:52:11;;;;;;;7.30;5.05;;;30.20;98.70;;;;;;6134897;23;20100;-81
2023/09/11 13:54:56;;;;;;;10.05;5.85;;;30.10;96.50;;;;;;6170065;23;20025;-79
2023/09/11 13:57:21;;;;;;;7.50;5.53;;;29.90;96.70;;;;;;6151094;23;20010;-77
2023/09/11 13:59:47;;;;;;;8.88;5.20;;;29.70;93.90;;;;;;6152115;23;20092;-78
2023/09/11 14:02:12;;;;;;;9.07;5.30;;;29.70;98.40;;;;;;6157876;23;20017;-80
2023/09/11 14:04:38;;;;;;;7.38;5.00;;;29.60;98.00;;;;;;6164479;23;20429;-78
2023/09/11 14:07:04;;;;;;;7.20;4.88;;;29.50;98.10;;;;;;6165423;23;20155;-79
2023/09/11 14:09:29;;;;;;;7.53;4.90;;;29.40;95.00;;;;;;6169166;23;20390;-80
2023/09/11 14:11:55;;;;;;;7.13;4.72;;;29.40;99.90;;;;;;6147137;23;20017;-79
2023/09/11 14:14:21;;;;;;;8.43;5.63;;;29.40;98.90;;;;;;6172276;23;20013;-79
2023/09/11 14:16:46;;;;;;;6.70;5.50;;;29.40;89.80;;;;;;6173886;23;20013;-79
2023/09/11 14:19:12;;;;;;;7.60;5.60;;;29.10;92.10;;;;;;6145084;23;20009;-79
2023/09/11 14:21:37;;;;;;;5.88;5.25;;;28.90;91.10;;;;;;6137199;23;20013;-79
2023/09/11 14:24:04;;;;;;;8.13;6.10;;;28.60;96.60;;;;;;6163922;23;20583;-79
2023/09/11 14:26:29;;;;;;;8.23;5.65;;;28.30;99.00;;;;;;6155147;23;20413;-78
2023/09/11 14:28:55;;;;;;;9.38;6.30;;;28.00;99.90;;;;;;6153951;23;20018;-78
2023/09/11 14:31:21;;;;;;;10.55;8.00;;;27.90;99.90;;;;;;6156987;23;20017;-77
2023/09/11 14:33:46;;;;;;;10.52;7.40;;;27.70;99.90;;;;;;6155306;23;20052;-77
2023/09/11 14:36:12;;;;;;;10.23;8.15;;;27.50;99.90;;;;;;6154857;23;20056;-77
2023/09/11 14:38:38;;;;;;;8.18;7.38;;;27.40;99.90;;;;;;6154876;23;20010;-78
2023/09/11 14:41:04;;;;;;;10.75;7.97;;;27.20;99.90;;;;;;6156411;23;20017;-78
2023/09/11 14:43:29;;;;;;;9.77;7.88;;;27.10;99.90;;;;;;6155562;23;20064;-77
2023/09/11 14:45:55;;;;;;;10.38;8.32;;;27.00;99.90;;;;;;6155439;23;20021;-77
2023/09/11 14:48:20;;;;;;;10.43;9.30;;;26.90;99.90;;;;;;6155053;23;20021;-78
2023/09/11 14:50:46;;;;;;;10.40;9.40;;;26.80;99.90;;;;;;6154290;23;20010;-78
2023/09/11 14:53:16;;;;;;;13.45;12.20;;;26.70;99.90;;;;;;6154782;23;20080;-77
2023/09/11 14:55:42;;;;;;;20.70;13.18;;;26.60;99.90;;;;;;6130836;23;20018;-77
2023/09/11 14:58:08;;;;;;;14.13;11.50;;;26.60;99.90;;;;;;6133095;23;20088;-77
2023/09/11 15:00:33;;;;;;;14.82;13.10;;;26.40;99.90;;;;;;6154850;23;20021;-77
2023/09/11 15:02:59;;;;;;;14.52;12.88;;;26.40;99.90;;;;;;6133646;23;20009;-77
2023/09/11 15:05:25;;;;;;;14.02;12.65;;;26.40;99.90;;;;;;6156659;23;20404;-78
2023/09/11 15:07:50;;;;;;;13.32;12.00;;;26.30;99.90;;;;;;6134099;23;20013;-78
2023/09/11 15:10:17;;;;;;;15.15;12.27;;;26.20;99.90;;;;;;6156177;23;20105;-78
2023/09/11 15:12:46;;;;;;;18.35;13.45;;;26.20;99.90;;;;;;6156212;23;20005;-77
2023/09/11 15:15:12;;;;;;;14.95;13.57;;;26.10;99.90;;;;;;6132186;23;20021;-77
2023/09/11 15:17:38;;;;;;;16.45;13.43;;;26.10;99.90;;;;;;6131450;23;20434;-78
2023/09/11 15:20:04;;;;;;;14.27;12.77;;;26.00;99.90;;;;;;6154868;23;20032;-78
2023/09/11 15:22:30;;;;;;;13.00;11.32;;;26.00;99.90;;;;;;6158860;23;20014;-78
2023/09/11 15:24:56;;;;;;;15.48;12.00;;;25.90;99.90;;;;;;6153588;23;20045;-78
2023/09/11 15:27:22;;;;;;;13.18;11.52;;;25.80;99.90;;;;;;6154277;23;20013;-78
2023/09/11 15:29:47;;;;;;;13.07;11.65;;;25.80;99.90;;;;;;6153751;23;20493;-78
2023/09/11 15:32:13;;;;;;;13.32;12.02;;;25.70;99.90;;;;;;6152849;23;20014;-77
2023/09/11 15:34:40;;;;;;;14.20;11.70;;;25.60;99.90;;;;;;6152416;23;20017;-77
2023/09/11 15:37:09;;;;;;;15.77;12.45;;;25.60;99.90;;;;;;6152739;23;20458;-78
2023/09/11 15:39:35;;;;;;;14.38;12.38;;;25.50;99.90;;;;;;6152256;23;20100;-78
2023/09/11 15:42:01;;;;;;;13.25;12.07;;;25.40;99.90;;;;;;6151959;23;20017;-78
2023/09/11 15:44:26;;;;;;;15.00;13.25;;;25.40;99.90;;;;;;6128109;23;20017;-80
2023/09/11 15:46:52;;;;;;;17.30;15.38;;;25.40;99.90;;;;;;6155256;23;20100;-80
2023/09/11 15:49:17;;;;;;;17.50;15.55;;;25.20;99.90;;;;;;6132673;23;20014;-78
2023/09/11 15:51:43;;;;;;;17.23;15.63;;;25.20;99.90;;;;;;6153105;23;20012;-78
2023/09/11 15:54:08;;;;;;;21.13;19.08;;;25.10;99.90;;;;;;6152941;23;20014;-77
2023/09/11 15:56:34;;;;;;;21.00;19.08;;;25.10;99.90;;;;;;6153771;23;20013;-78
2023/09/11 15:58:59;;;;;;;25.58;21.17;;;25.10;99.90;;;;;;6131274;23;20022;-77
2023/09/11 16:01:25;;;;;;;23.38;21.17;;;25.00;99.90;;;;;;6157199;23;20023;-76
2023/09/11 16:03:50;;;;;;;22.60;20.38;;;24.90;99.90;;;;;;6152620;23;20100;-76
2023/09/11 16:06:16;;;;;;;21.30;19.15;;;24.80;99.90;;;;;;6151797;23;20461;-76
2023/09/11 16:08:43;;;;;;;24.30;22.05;;;24.70;99.90;;;;;;6152846;23;20064;-76
2023/09/11 16:11:09;;;;;;;25.73;23.33;;;24.70;99.90;;;;;;6151987;23;20025;-77